Time;durP1;ratioP1;P1;durP2;ratioP2;P2;SDS_P1;SDS_P2;PMS_P1;PMS_P2;Temp;Humidity;BMP_temperature;BMP_pressure;BME280_temperature;BME280_humidity;BME280_pressure;Samples;Min_cycle;Max_cycle;Signal;HPM_P1;HPM_P2
2022/11/01 00:01:57;;;;;;;;;;;;;;;16.37;87.29;99579.28;7387494;19;19989;-56
2022/11/01 00:04:24;;;;;;;;;;;;;;;16.32;87.43;99581.81;7388654;19;20381;-58
2022/11/01 00:06:51;;;;;;;;;;;;;;;16.26;86.47;99590.63;7387920;19;19935;-58
2022/11/01 00:09:18;;;;;;;;;;;;;;;16.20;86.52;99584.38;7387028;19;20329;-57
2022/11/01 00:11:45;;;;;;;;;;;;;;;16.17;87.42;99584.81;7386649;19;20006;-58
2022/11/01 00:14:13;;;;;;;;;;;;;;;16.12;85.96;99584.66;7389018;19;20002;-56
2022/11/01 00:16:40;;;;;;;;;;;;;;;16.04;84.94;99581.50;7385775;19;19922;-57
2022/11/01 00:19:08;;;;;;;;;;;;;;;15.99;84.99;99584.81;7386917;19;19932;-58
2022/11/01 00:21:35;;;;;;;;;;;;;;;15.90;82.31;99582.66;7388789;19;20397;-57
2022/11/01 00:24:02;;;;;;;;;;;;;;;15.85;83.15;99580.63;7390274;19;19931;-58
2022/11/01 00:26:29;;;;;;;;;;;;;;;15.86;83.86;99571.66;7387005;19;19944;-57
2022/11/01 00:28:56;;;;;;;;;;;;;;;15.86;83.57;99576.13;7387629;19;19914;-56
2022/11/01 00:31:23;;;;;;;;;;;;;;;15.83;83.17;99561.47;7387127;19;19927;-60
2022/11/01 00:33:49;;;;;;;;;;;;;;;15.79;83.07;99568.25;7387577;19;19914;-58
2022/11/01 00:36:17;;;;;;;;;;;;;;;15.77;83.29;99563.16;7386237;19;19930;-57
2022/11/01 00:38:48;;;;;;;;;;;;;;;15.74;82.37;99550.34;7386865;19;19922;-56
2022/11/01 00:41:14;;;;;;;;;;;;;;;15.70;82.32;99548.31;7387007;19;19925;-56
2022/11/01 00:43:41;;;;;;;;;;;;;;;15.67;81.60;99540.81;7386464;19;19986;-55
2022/11/01 00:46:09;;;;;;;;;;;;;;;15.67;82.51;99528.38;7388667;19;19925;-59
2022/11/01 00:48:35;;;;;;;;;;;;;;;15.64;81.73;99531.47;7385820;19;19922;-59
2022/11/01 00:51:02;;;;;;;;;;;;;;;15.57;80.62;99533.34;7388251;19;19922;-55
2022/11/01 00:53:29;;;;;;;;;;;;;;;15.54;79.72;99515.25;7386975;19;20604;-59
2022/11/01 00:56:00;;;;;;;;;;;;;;;15.54;81.34;99494.03;7388319;19;20606;-56
2022/11/01 00:58:27;;;;;;;;;;;;;;;15.46;78.34;99507.50;7381273;19;19986;-59
2022/11/01 01:00:54;;;;;;;;;;;;;;;15.46;79.70;99483.66;7380370;19;19918;-59
2022/11/01 01:03:21;;;;;;;;;;;;;;;15.48;80.23;99484.25;7387972;19;19927;-60
2022/11/01 01:05:49;;;;;;;;;;;;;;;15.49;79.69;99477.13;7386377;19;19929;-58
2022/11/01 01:08:16;;;;;;;;;;;;;;;15.46;79.84;99462.44;7387414;19;19974;-58
2022/11/01 01:10:43;;;;;;;;;;;;;;;15.47;81.12;99466.72;7383586;19;19982;-57
2022/11/01 01:13:09;;;;;;;;;;;;;;;15.54;83.71;99466.69;7383015;19;19910;-60
2022/11/01 01:15:38;;;;;;;;;;;;;;;15.49;81.49;99446.09;7385507;19;19918;-58
2022/11/01 01:18:05;;;;;;;;;;;;;;;15.49;81.70;99437.34;7385067;19;19926;-58
2022/11/01 01:20:32;;;;;;;;;;;;;;;15.45;82.27;99421.03;7384661;19;19981;-59
2022/11/01 01:23:00;;;;;;;;;;;;;;;15.38;81.43;99415.03;7387550;19;19939;-60
2022/11/01 01:25:27;;;;;;;;;;;;;;;15.28;81.42;99418.16;7386024;19;19923;-59
2022/11/01 01:27:55;;;;;;;;;;;;;;;15.24;82.31;99409.00;7385528;19;20042;-59
2022/11/01 01:30:21;;;;;;;;;;;;;;;15.17;82.59;99418.88;7382754;19;20004;-56
2022/11/01 01:32:49;;;;;;;;;;;;;;;15.14;84.20;99395.44;7387585;19;20355;-59
2022/11/01 01:35:16;;;;;;;;;;;;;;;15.13;84.24;99393.03;7385383;19;19970;-58
2022/11/01 01:37:42;;;;;;;;;;;;;;;15.16;85.93;99398.69;7385655;19;19919;-60
2022/11/01 01:40:09;;;;;;;;;;;;;;;15.15;85.75;99389.13;7385428;19;19921;-58
2022/11/01 01:42:38;;;;;;;;;;;;;;;15.14;86.22;99403.41;7385481;19;19987;-59
2022/11/01 01:45:15;;;;;;;;;;;;;;;15.18;86.95;99401.97;7382902;19;20583;-57
2022/11/01 01:47:44;;;;;;;;;;;;;;;15.20;87.35;99399.88;7385142;19;19942;-57
2022/11/01 01:50:15;;;;;;;;;;;;;;;15.22;88.22;99397.03;7381882;19;20023;-58
2022/11/01 01:52:49;;;;;;;;;;;;;;;15.20;87.89;99393.78;7385195;19;20347;-58
2022/11/01 01:55:19;;;;;;;;;;;;;;;15.16;87.69;99405.84;7386084;19;19919;-59
2022/11/01 01:57:47;;;;;;;;;;;;;;;15.15;88.45;99394.44;7383399;19;19927;-58
2022/11/01 02:00:16;;;;;;;;;;;;;;;15.12;88.54;99413.41;7384855;19;19919;-57
2022/11/01 02:02:43;;;;;;;;;;;;;;;15.10;90.17;99417.28;7385357;19;19927;-57
2022/11/01 02:05:16;;;;;;;;;;;;;;;15.01;89.81;99427.38;7381393;19;19927;-59
2022/11/01 02:07:44;;;;;;;;;;;;;;;14.92;90.54;99439.25;7385266;19;19922;-59
2022/11/01 02:10:13;;;;;;;;;;;;;;;14.84;90.83;99458.84;7383545;19;19994;-58
2022/11/01 02:12:44;;;;;;;;;;;;;;;14.81;91.95;99456.66;7381526;19;19925;-54
2022/11/01 02:15:12;;;;;;;;;;;;;;;14.76;90.10;99472.38;7381787;19;20333;-59
2022/11/01 02:17:49;;;;;;;;;;;;;;;14.75;89.58;99467.28;7385323;19;19922;-57
2022/11/01 02:20:16;;;;;;;;;;;;;;;14.75;89.06;99496.41;7384720;19;19926;-58
2022/11/01 02:22:43;;;;;;;;;;;;;;;14.72;88.46;99502.13;7386637;19;19931;-58
2022/11/01 02:25:40;;;;;;;;;;;;;;;14.73;87.49;99517.00;7383230;19;19929;-58
2022/11/01 02:28:19;;;;;;;;;;;;;;;14.76;86.97;99527.16;7382373;19;19939;-58
2022/11/01 02:30:56;;;;;;;;;;;;;;;14.79;86.54;99532.84;7382810;19;20198;-59
2022/11/01 02:33:26;;;;;;;;;;;;;;;14.84;87.40;99543.59;7379225;19;20334;-59
2022/11/01 02:35:53;;;;;;;;;;;;;;;14.84;88.30;99562.16;7386342;19;20589;-58
2022/11/01 02:38:26;;;;;;;;;;;;;;;14.87;89.63;99571.53;7383611;19;20311;-59
2022/11/01 02:41:02;;;;;;;;;;;;;;;14.85;90.49;99584.97;7388566;19;20194;-58
2022/11/01 02:43:30;;;;;;;;;;;;;;;14.85;91.50;99578.84;7390113;19;20361;-58
2022/11/01 02:46:59;;;;;;;;;;;;;;;14.82;92.22;99595.19;7390621;19;19927;-57
2022/11/01 02:48:47;;;;;;;;;;;;;;;14.84;92.58;99609.00;7389193;19;19923;-58
2022/11/01 02:51:15;;;;;;;;;;;;;;;14.84;93.01;99619.59;7388650;19;20267;-58
2022/11/01 02:53:42;;;;;;;;;;;;;;;14.88;91.93;99618.19;7391806;19;20590;-59
2022/11/01 02:56:10;;;;;;;;;;;;;;;14.84;90.17;99630.19;7391226;19;19915;-58
2022/11/01 02:58:36;;;;;;;;;;;;;;;14.81;89.93;99657.91;7387993;19;19933;-58
2022/11/01 03:01:13;;;;;;;;;;;;;;;14.76;87.84;99649.78;7391962;19;19950;-58
2022/11/01 03:03:42;;;;;;;;;;;;;;;14.74;87.09;99659.78;7392060;19;19981;-58
2022/11/01 03:06:19;;;;;;;;;;;;;;;14.73;87.01;99679.31;7388239;19;19918;-59
2022/11/01 03:08:48;;;;;;;;;;;;;;;14.74;87.50;99658.94;7390076;19;19927;-56
2022/11/01 03:11:19;;;;;;;;;;;;;;;14.71;87.39;99683.22;7385683;19;20622;-57
2022/11/01 03:13:56;;;;;;;;;;;;;;;14.66;87.47;99704.19;7389715;19;20616;-58
2022/11/01 03:16:33;;;;;;;;;;;;;;;14.60;87.32;99708.50;7390789;19;19930;-55
2022/11/01 03:19:03;;;;;;;;;;;;;;;14.60;87.85;99723.56;7391229;19;19982;-57
2022/11/01 03:21:34;;;;;;;;;;;;;;;14.51;86.45;99750.25;7390643;19;19923;-57
2022/11/01 03:24:08;;;;;;;;;;;;;;;14.49;85.74;99762.06;7390397;19;19991;-58
2022/11/01 03:26:36;;;;;;;;;;;;;;;14.45;84.33;99766.13;7388196;19;19950;-56
2022/11/01 03:29:06;;;;;;;;;;;;;;;14.42;84.24;99795.66;7389299;19;19987;-57
2022/11/01 03:31:36;;;;;;;;;;;;;;;14.36;83.83;99796.44;7391215;19;19923;-58
2022/11/01 03:34:09;;;;;;;;;;;;;;;14.32;82.98;99817.22;7391334;19;19963;-58
2022/11/01 03:36:38;;;;;;;;;;;;;;;14.32;84.26;99827.78;7390095;19;20608;-57
2022/11/01 03:39:09;;;;;;;;;;;;;;;14.33;83.75;99833.88;7392064;19;19914;-57
2022/11/01 03:41:38;;;;;;;;;;;;;;;14.36;83.76;99849.38;7387639;19;20463;-54
2022/11/01 03:44:05;;;;;;;;;;;;;;;14.32;83.16;99858.72;7387398;19;19926;-58
2022/11/01 03:46:32;;;;;;;;;;;;;;;14.27;83.32;99867.28;7390650;19;19982;-56
2022/11/01 03:48:59;;;;;;;;;;;;;;;14.16;83.82;99874.97;7389360;19;20301;-57
2022/11/01 03:51:26;;;;;;;;;;;;;;;14.07;83.75;99864.56;7387521;19;20361;-58
2022/11/01 03:53:53;;;;;;;;;;;;;;;14.01;83.46;99875.13;7387354;19;19919;-57
2022/11/01 03:56:20;;;;;;;;;;;;;;;13.97;83.01;99885.28;7388675;19;19926;-53
2022/11/01 03:58:47;;;;;;;;;;;;;;;13.98;83.83;99889.56;7388526;19;19942;-58
2022/11/01 04:01:15;;;;;;;;;;;;;;;13.99;83.41;99915.00;7389569;19;20395;-60
2022/11/01 04:03:42;;;;;;;;;;;;;;;13.94;82.47;99914.78;7386893;19;19919;-57
2022/11/01 04:06:09;;;;;;;;;;;;;;;14.00;84.50;99921.94;7385813;19;19934;-56
2022/11/01 04:08:36;;;;;;;;;;;;;;;14.00;82.87;99937.81;7389643;19;19922;-57
2022/11/01 04:11:03;;;;;;;;;;;;;;;13.99;82.23;99943.28;7386575;19;20428;-52
2022/11/01 04:13:30;;;;;;;;;;;;;;;13.99;82.08;99952.03;7385301;19;19978;-59
2022/11/01 04:21:17;;;;;;;;;;;;;;;14.04;81.85;99959.38;7387097;19;19924;-58
2022/11/01 04:23:45;;;;;;;;;;;;;;;14.00;81.26;99968.72;7386985;19;19919;-59
2022/11/01 04:26:13;;;;;;;;;;;;;;;14.02;81.35;99982.56;7388860;19;19982;-57
2022/11/01 04:28:40;;;;;;;;;;;;;;;14.03;81.77;100000.06;7387121;19;20399;-56
2022/11/01 04:31:08;;;;;;;;;;;;;;;14.03;81.43;100000.88;7386428;19;19986;-58
2022/11/01 04:33:35;;;;;;;;;;;;;;;13.99;81.00;100014.69;7388489;19;19986;-58
2022/11/01 04:36:03;;;;;;;;;;;;;;;13.96;81.15;100017.75;7389067;19;19974;-58
2022/11/01 04:38:30;;;;;;;;;;;;;;;14.02;82.54;100022.22;7387416;19;19915;-58
2022/11/01 04:40:57;;;;;;;;;;;;;;;14.06;82.77;100034.91;7390107;19;20061;-59
2022/11/01 04:43:24;;;;;;;;;;;;;;;14.08;82.21;100039.97;7386406;19;19928;-58
2022/11/01 04:45:53;;;;;;;;;;;;;;;14.12;82.42;100047.31;7388652;19;20337;-59
2022/11/01 04:48:20;;;;;;;;;;;;;;;14.13;82.00;100043.66;7387425;19;19951;-58
2022/11/01 04:50:47;;;;;;;;;;;;;;;14.15;82.07;100051.41;7386199;19;19939;-59
2022/11/01 04:53:14;;;;;;;;;;;;;;;14.17;82.26;100052.03;7387678;19;19915;-58
2022/11/01 04:55:41;;;;;;;;;;;;;;;14.22;82.72;100054.13;7388161;19;19926;-58
2022/11/01 04:58:09;;;;;;;;;;;;;;;14.24;82.75;100060.00;7383933;19;19918;-55
2022/11/01 05:00:37;;;;;;;;;;;;;;;14.32;83.06;100065.16;7387852;19;20018;-56
2022/11/01 05:03:05;;;;;;;;;;;;;;;14.31;82.00;100077.56;7386763;19;19934;-56
2022/11/01 05:05:32;;;;;;;;;;;;;;;14.31;82.55;100082.03;7386011;19;20006;-53
2022/11/01 05:08:00;;;;;;;;;;;;;;;14.30;82.38;100083.06;7384689;19;20200;-58
2022/11/01 05:10:51;;;;;;;;;;;;;;;14.31;82.81;100084.69;7386129;19;19922;-56
2022/11/01 05:13:17;;;;;;;;;;;;;;;14.37;82.88;100087.41;7383560;19;20622;-60
2022/11/01 05:15:44;;;;;;;;;;;;;;;14.37;81.76;100094.53;7386736;19;19919;-59
2022/11/01 05:18:31;;;;;;;;;;;;;;;14.36;81.82;100104.31;7385344;19;20169;-55
2022/11/01 05:20:58;;;;;;;;;;;;;;;14.34;82.26;100105.47;7386015;19;19911;-58
2022/11/01 05:23:25;;;;;;;;;;;;;;;14.37;82.87;100108.59;7387861;19;19923;-58
2022/11/01 05:25:52;;;;;;;;;;;;;;;14.39;82.52;100108.38;7388033;19;20267;-55
2022/11/01 05:28:19;;;;;;;;;;;;;;;14.43;83.30;100115.72;7383708;19;19933;-57
2022/11/01 05:30:45;;;;;;;;;;;;;;;14.49;84.39;100114.94;7386495;19;19937;-59
2022/11/01 05:33:12;;;;;;;;;;;;;;;14.51;83.42;100112.94;7385647;19;20663;-53
2022/11/01 05:35:39;;;;;;;;;;;;;;;14.54;83.08;100111.72;7388130;19;19985;-59
2022/11/01 05:38:06;;;;;;;;;;;;;;;14.61;83.67;100109.91;7387888;19;20623;-55
2022/11/01 05:40:33;;;;;;;;;;;;;;;14.64;83.25;100112.16;7386001;19;20315;-56
2022/11/01 05:43:00;;;;;;;;;;;;;;;14.69;83.79;100112.38;7385469;19;19922;-58
2022/11/01 05:45:28;;;;;;;;;;;;;;;14.70;83.61;100113.22;7384433;19;20384;-57
2022/11/01 05:47:55;;;;;;;;;;;;;;;14.63;83.08;100117.69;7387249;19;19925;-58
2022/11/01 05:50:22;;;;;;;;;;;;;;;14.62;83.54;100110.75;7385897;19;19919;-57
2022/11/01 05:52:50;;;;;;;;;;;;;;;14.58;83.70;100126.19;7385305;19;19929;-59
2022/11/01 05:55:17;;;;;;;;;;;;;;;14.57;83.74;100116.63;7387062;19;19914;-59
2022/11/01 05:57:44;;;;;;;;;;;;;;;14.60;84.96;100121.53;7385747;19;19915;-59
2022/11/01 06:00:11;;;;;;;;;;;;;;;14.59;84.56;100109.28;7385264;19;20269;-59
2022/11/01 06:02:38;;;;;;;;;;;;;;;14.61;84.86;100112.56;7386670;19;19985;-57
2022/11/01 06:05:05;;;;;;;;;;;;;;;14.61;84.66;100109.91;7383459;19;19994;-57
2022/11/01 06:07:34;;;;;;;;;;;;;;;14.61;84.76;100109.91;7386842;19;20025;-58
2022/11/01 06:10:00;;;;;;;;;;;;;;;14.63;85.36;100117.69;7383317;19;19971;-58
2022/11/01 06:12:27;;;;;;;;;;;;;;;14.69;85.73;100117.69;7382825;19;19943;-56
2022/11/01 06:14:54;;;;;;;;;;;;;;;14.73;86.04;100115.47;7383102;19;19939;-59
2022/11/01 06:17:21;;;;;;;;;;;;;;;14.77;85.98;100114.88;7394581;19;19923;-56
2022/11/01 06:19:48;;;;;;;;;;;;;;;14.84;86.38;100105.13;7392757;19;19926;-57
2022/11/01 06:22:15;;;;;;;;;;;;;;;14.94;86.76;100118.81;7394574;19;19967;-59
2022/11/01 06:24:42;;;;;;;;;;;;;;;15.03;87.06;100124.78;7393812;19;19934;-56
2022/11/01 06:27:09;;;;;;;;;;;;;;;15.06;85.74;100124.34;7391544;19;20309;-56
2022/11/01 06:29:38;;;;;;;;;;;;;;;15.09;85.82;100115.19;7392043;19;19946;-57
2022/11/01 06:32:05;;;;;;;;;;;;;;;15.11;85.78;100127.22;7389938;19;19922;-58
2022/11/01 06:34:32;;;;;;;;;;;;;;;15.16;86.14;100126.63;7391635;19;19915;-58
2022/11/01 06:36:59;;;;;;;;;;;;;;;15.16;85.68;100118.66;7394128;19;19947;-59
2022/11/01 06:39:26;;;;;;;;;;;;;;;15.18;86.39;100129.91;7394675;19;20007;-58
2022/11/01 06:41:53;;;;;;;;;;;;;;;15.19;86.81;100115.59;7389759;19;19932;-54
2022/11/01 06:44:20;;;;;;;;;;;;;;;15.22;86.41;100128.47;7389639;19;20303;-57
2022/11/01 06:46:47;;;;;;;;;;;;;;;15.20;86.84;100118.06;7393367;19;20329;-59
2022/11/01 06:49:14;;;;;;;;;;;;;;;15.24;87.27;100123.78;7391584;19;20360;-57
2022/11/01 06:51:45;;;;;;;;;;;;;;;15.28;87.45;100122.38;7390814;19;19919;-59
2022/11/01 06:54:12;;;;;;;;;;;;;;;15.31;87.01;100128.09;7389361;19;19935;-60
2022/11/01 06:56:39;;;;;;;;;;;;;;;15.32;86.96;100132.38;7391143;19;19922;-58
2022/11/01 06:59:07;;;;;;;;;;;;;;;15.30;86.89;100121.16;7391179;19;19929;-58
2022/11/01 07:01:34;;;;;;;;;;;;;;;15.33;87.24;100133.19;7392970;19;20622;-61
2022/11/01 07:04:01;;;;;;;;;;;;;;;15.33;87.09;100139.31;7390895;19;20051;-60
2022/11/01 07:06:29;;;;;;;;;;;;;;;15.36;87.08;100138.09;7390702;19;19927;-59
2022/11/01 07:08:58;;;;;;;;;;;;;;;15.41;87.54;100154.22;7392320;19;20335;-57
2022/11/01 07:11:25;;;;;;;;;;;;;;;15.45;87.71;100152.78;7388235;19;19927;-59
2022/11/01 07:13:58;;;;;;;;;;;;;;;15.48;88.44;100163.00;7388419;19;19914;-57
2022/11/01 07:16:25;;;;;;;;;;;;;;;15.46;88.94;100164.22;7391175;19;19923;-59
2022/11/01 07:18:52;;;;;;;;;;;;;;;15.46;89.45;100164.22;7391461;19;19935;-59
2022/11/01 07:21:19;;;;;;;;;;;;;;;15.47;89.62;100177.28;7388436;19;19946;-59
2022/11/01 07:23:46;;;;;;;;;;;;;;;15.48;89.68;100178.91;7392397;19;20351;-57
2022/11/01 07:26:13;;;;;;;;;;;;;;;15.50;89.88;100178.69;7388477;19;20245;-57
2022/11/01 07:28:41;;;;;;;;;;;;;;;15.53;90.33;100183.66;7388386;19;20487;-57
2022/11/01 07:31:08;;;;;;;;;;;;;;;15.56;89.83;100176.09;7388526;19;19974;-59
2022/11/01 07:33:35;;;;;;;;;;;;;;;15.62;90.30;100172.66;7390610;19;19946;-58
2022/11/01 07:36:03;;;;;;;;;;;;;;;15.67;90.05;100180.00;7391054;19;19907;-57
2022/11/01 07:38:30;;;;;;;;;;;;;;;15.69;89.52;100175.31;7391771;19;19952;-56
2022/11/01 07:40:57;;;;;;;;;;;;;;;15.70;89.30;100187.53;7390495;19;19963;-59
2022/11/01 07:43:24;;;;;;;;;;;;;;;15.71;89.63;100181.22;7389119;19;19926;-58
2022/11/01 07:45:51;;;;;;;;;;;;;;;15.73;90.21;100187.16;7389539;19;19923;-57
2022/11/01 07:48:18;;;;;;;;;;;;;;;15.76;90.70;100198.16;7391460;19;19927;-59
2022/11/01 07:50:45;;;;;;;;;;;;;;;15.79;91.01;100189.00;7389668;19;20597;-57
2022/11/01 07:53:15;;;;;;;;;;;;;;;15.81;91.15;100189.59;7387839;19;20380;-60
2022/11/01 07:55:43;;;;;;;;;;;;;;;15.83;91.77;100187.56;7389826;19;19927;-60
2022/11/01 07:58:11;;;;;;;;;;;;;;;15.88;92.35;100194.91;7385300;19;19925;-57
2022/11/01 08:00:38;;;;;;;;;;;;;;;15.91;92.70;100192.66;7388477;19;19926;-61
2022/11/01 08:03:10;;;;;;;;;;;;;;;15.90;91.82;100193.69;7389428;19;19944;-58
2022/11/01 08:05:38;;;;;;;;;;;;;;;15.90;91.53;100203.50;7385956;19;19990;-61
2022/11/01 08:08:05;;;;;;;;;;;;;;;15.95;92.80;100207.16;7385972;19;19922;-59
2022/11/01 08:10:33;;;;;;;;;;;;;;;16.04;93.71;100219.22;7387067;19;20554;-58
2022/11/01 08:13:01;;;;;;;;;;;;;;;16.02;92.34;100225.75;7384073;19;19926;-64
2022/11/01 08:15:28;;;;;;;;;;;;;;;16.02;91.92;100215.94;7385895;19;20594;-57
2022/11/01 08:17:57;;;;;;;;;;;;;;;16.00;92.02;100220.63;7384916;19;19926;-57
2022/11/01 08:20:24;;;;;;;;;;;;;;;16.00;92.28;100228.59;7388287;19;20329;-58
2022/11/01 08:22:52;;;;;;;;;;;;;;;16.01;92.59;100224.94;7390223;19;19923;-60
2022/11/01 08:25:19;;;;;;;;;;;;;;;16.02;92.30;100233.72;7386612;19;19938;-59
2022/11/01 08:27:46;;;;;;;;;;;;;;;16.04;92.66;100229.03;7386396;19;19922;-58
2022/11/01 08:30:14;;;;;;;;;;;;;;;16.05;93.14;100233.31;7387029;19;19914;-56
2022/11/01 08:32:41;;;;;;;;;;;;;;;16.07;92.75;100226.78;7384414;19;19930;-59
2022/11/01 08:35:10;;;;;;;;;;;;;;;16.08;92.56;100222.28;7388192;19;19927;-59
2022/11/01 08:37:46;;;;;;;;;;;;;;;16.09;92.36;100235.38;7387502;19;19935;-58
2022/11/01 08:40:14;;;;;;;;;;;;;;;16.10;92.19;100238.84;7387676;19;19918;-59
2022/11/01 08:42:41;;;;;;;;;;;;;;;16.07;91.86;100250.66;7387945;19;20681;-60
2022/11/01 08:45:09;;;;;;;;;;;;;;;16.08;91.87;100239.03;7385802;19;19919;-56
2022/11/01 08:47:36;;;;;;;;;;;;;;;16.10;92.11;100234.31;7385773;19;20341;-60
2022/11/01 08:50:04;;;;;;;;;;;;;;;16.13;92.44;100233.13;7384766;19;19915;-59
2022/11/01 08:52:37;;;;;;;;;;;;;;;16.13;92.56;100236.59;7386901;19;19915;-58
2022/11/01 08:55:04;;;;;;;;;;;;;;;16.11;91.73;100228.00;7386746;19;19940;-59
2022/11/01 08:57:31;;;;;;;;;;;;;;;16.13;92.04;100227.81;7385442;19;19919;-59
2022/11/01 08:59:58;;;;;;;;;;;;;;;16.14;92.02;100232.91;7386328;19;19923;-59
2022/11/01 09:02:25;;;;;;;;;;;;;;;16.14;92.50;100237.41;7383917;19;19927;-59
2022/11/01 09:04:53;;;;;;;;;;;;;;;16.12;92.31;100224.31;7383171;19;19940;-58
2022/11/01 09:07:20;;;;;;;;;;;;;;;16.09;91.71;100242.50;7387663;19;19915;-56
2022/11/01 09:09:47;;;;;;;;;;;;;;;16.10;91.71;100236.97;7386922;19;19942;-59
2022/11/01 09:12:14;;;;;;;;;;;;;;;16.10;91.98;100238.84;7383671;19;19994;-57
2022/11/01 09:14:47;;;;;;;;;;;;;;;16.11;91.95;100243.94;7384123;19;19926;-59
2022/11/01 09:17:14;;;;;;;;;;;;;;;16.14;91.93;100245.38;7387133;19;19994;-60
2022/11/01 09:19:41;;;;;;;;;;;;;;;16.17;91.76;100235.16;7386298;19;20348;-56
2022/11/01 09:22:09;;;;;;;;;;;;;;;16.21;91.66;100232.91;7386676;19;19990;-59
2022/11/01 09:24:35;;;;;;;;;;;;;;;16.21;91.69;100228.41;7384000;19;19931;-57
2022/11/01 09:27:05;;;;;;;;;;;;;;;16.21;91.35;100236.38;7382433;19;19927;-60
2022/11/01 09:29:32;;;;;;;;;;;;;;;16.19;91.17;100234.97;7383021;19;19914;-59
2022/11/01 09:32:20;;;;;;;;;;;;;;;16.15;91.96;100258.41;7385475;19;20589;-61
2022/11/01 09:34:48;;;;;;;;;;;;;;;16.15;92.35;100254.97;7385849;19;19930;-60
2022/11/01 09:37:15;;;;;;;;;;;;;;;16.13;92.84;100265.78;7386627;19;19918;-59
2022/11/01 09:39:42;;;;;;;;;;;;;;;16.10;92.90;100266.16;7385166;19;19918;-61
2022/11/01 09:42:14;;;;;;;;;;;;;;;16.07;94.03;100274.56;7383958;19;19945;-62
2022/11/01 09:44:44;;;;;;;;;;;;;;;16.04;94.59;100256.38;7382339;19;20501;-61
2022/11/01 09:47:14;;;;;;;;;;;;;;;16.01;94.64;100263.91;7386993;19;19915;-61
2022/11/01 09:49:43;;;;;;;;;;;;;;;15.99;95.07;100252.69;7385470;19;19919;-60
2022/11/01 09:52:18;;;;;;;;;;;;;;;15.97;95.54;100271.47;7391058;19;19927;-60
2022/11/01 09:54:46;;;;;;;;;;;;;;;15.94;95.71;100285.16;7393395;19;19915;-61
2022/11/01 09:57:22;;;;;;;;;;;;;;;15.90;95.71;100286.56;7392664;19;19935;-60
2022/11/01 09:59:57;;;;;;;;;;;;;;;15.92;96.47;100289.00;7392948;19;20308;-60
2022/11/01 10:02:33;;;;;;;;;;;;;;;15.93;96.10;100280.88;7393153;19;20229;-61
2022/11/01 10:05:10;;;;;;;;;;;;;;;15.89;95.68;100303.53;7389700;19;20009;-61
2022/11/01 10:07:46;;;;;;;;;;;;;;;15.84;95.54;100308.59;7393383;19;19911;-61
2022/11/01 10:10:16;;;;;;;;;;;;;;;15.80;95.95;100299.38;7392460;19;19936;-62
2022/11/01 10:12:53;;;;;;;;;;;;;;;15.79;96.23;100308.38;7389264;19;20375;-61
2022/11/01 10:15:34;;;;;;;;;;;;;;;15.74;96.36;100295.72;7389696;19;19926;-59
2022/11/01 10:18:10;;;;;;;;;;;;;;;15.78;96.88;100298.78;7391708;19;19921;-62
2022/11/01 10:20:39;;;;;;;;;;;;;;;15.82;97.00;100292.06;7393355;19;20001;-61
2022/11/01 10:23:05;;;;;;;;;;;;;;;15.80;96.05;100294.91;7391604;19;19947;-60
2022/11/01 10:25:35;;;;;;;;;;;;;;;15.82;96.19;100303.50;7391925;19;19918;-60
2022/11/01 10:28:05;;;;;;;;;;;;;;;15.91;96.49;100303.28;7389620;19;19922;-61
2022/11/01 10:30:36;;;;;;;;;;;;;;;15.98;95.72;100306.78;7391683;19;19922;-60
2022/11/01 10:33:13;;;;;;;;;;;;;;;16.04;95.41;100300.69;7389897;19;19915;-61
2022/11/01 10:35:42;;;;;;;;;;;;;;;16.10;95.06;100311.28;7391517;19;20262;-59
2022/11/01 10:38:10;;;;;;;;;;;;;;;16.14;94.40;100320.53;7391710;19;19951;-62
2022/11/01 10:40:55;;;;;;;;;;;;;;;16.15;92.78;100314.16;7393471;19;20018;-61
2022/11/01 10:43:24;;;;;;;;;;;;;;;16.18;92.58;100312.97;7388267;19;19915;-60
2022/11/01 10:45:54;;;;;;;;;;;;;;;16.24;93.09;100312.16;7392027;19;20068;-61
2022/11/01 10:48:21;;;;;;;;;;;;;;;16.26;92.44;100323.38;7390762;19;19923;-62
2022/11/01 10:50:49;;;;;;;;;;;;;;;16.29;92.04;100323.00;7393038;19;19914;-58
2022/11/01 10:53:17;;;;;;;;;;;;;;;16.32;92.06;100322.56;7388816;19;19943;-61
2022/11/01 10:55:47;;;;;;;;;;;;;;;16.32;90.99;100324.41;7388183;19;20532;-61
2022/11/01 10:58:15;;;;;;;;;;;;;;;16.33;90.57;100304.81;7389438;19;19919;-61
2022/11/01 11:00:43;;;;;;;;;;;;;;;16.39;90.62;100318.09;7390702;19;19918;-62
2022/11/01 11:03:17;;;;;;;;;;;;;;;16.42;90.63;100309.72;7390890;19;20346;-58
2022/11/01 11:05:45;;;;;;;;;;;;;;;16.43;89.57;100319.31;7387274;19;19950;-62
2022/11/01 11:08:16;;;;;;;;;;;;;;;16.40;88.73;100316.25;7390566;19;19926;-61
2022/11/01 11:10:44;;;;;;;;;;;;;;;16.43;89.24;100311.34;7389502;19;20340;-61
2022/11/01 11:13:13;;;;;;;;;;;;;;;16.46;89.41;100304.81;7383886;19;19910;-59
2022/11/01 11:15:50;;;;;;;;;;;;;;;16.44;87.75;100323.63;7389517;19;19918;-62
2022/11/01 11:18:26;;;;;;;;;;;;;;;16.47;87.86;100315.22;7387994;19;19930;-61
2022/11/01 11:20:57;;;;;;;;;;;;;;;16.51;87.92;100312.97;7389977;19;19926;-63
2022/11/01 11:23:26;;;;;;;;;;;;;;;16.56;88.18;100303.38;7388454;19;19932;-60
2022/11/01 11:25:59;;;;;;;;;;;;;;;16.61;88.13;100300.94;7390684;19;19929;-59
2022/11/01 11:28:29;;;;;;;;;;;;;;;16.65;87.88;100312.00;7385903;19;19928;-60
2022/11/01 11:31:09;;;;;;;;;;;;;;;16.68;86.69;100317.72;7390109;19;19915;-62
2022/11/01 11:33:36;;;;;;;;;;;;;;;16.71;86.00;100316.47;7388764;19;19914;-62
2022/11/01 11:36:04;;;;;;;;;;;;;;;16.71;85.15;100303.19;7390610;19;19915;-60
2022/11/01 11:38:39;;;;;;;;;;;;;;;16.73;84.46;100297.69;7389907;19;19918;-61
2022/11/01 11:41:08;;;;;;;;;;;;;;;16.76;83.40;100308.69;7389140;19;19918;-61
2022/11/01 11:43:36;;;;;;;;;;;;;;;16.80;82.92;100312.59;7387072;19;19922;-61
2022/11/01 11:46:03;;;;;;;;;;;;;;;16.85;82.43;100312.00;7389712;19;19983;-59
2022/11/01 11:48:31;;;;;;;;;;;;;;;16.86;81.10;100305.66;7388556;19;20536;-61
2022/11/01 11:51:00;;;;;;;;;;;;;;;16.90;81.21;100312.19;7388425;19;19919;-62
2022/11/01 11:53:28;;;;;;;;;;;;;;;16.95;81.33;100301.75;7387242;19;20343;-61
2022/11/01 11:55:57;;;;;;;;;;;;;;;16.96;80.06;100306.06;7389473;19;19942;-61
2022/11/01 11:58:26;;;;;;;;;;;;;;;17.06;84.31;100295.81;7384492;19;19934;-61
2022/11/01 12:00:58;;;;;;;;;;;;;;;17.15;83.56;100296.38;7389287;19;19961;-61
2022/11/01 12:03:26;;;;;;;;;;;;;;;17.19;81.51;100292.28;7386319;19;19939;-59
2022/11/01 12:05:55;;;;;;;;;;;;;;;17.23;82.02;100299.63;7385910;19;19943;-62
2022/11/01 12:08:31;;;;;;;;;;;;;;;17.20;78.64;100297.41;7386855;19;19927;-62
2022/11/01 12:10:58;;;;;;;;;;;;;;;17.19;77.86;100295.75;7388820;19;19923;-60
2022/11/01 12:13:36;;;;;;;;;;;;;;;17.22;78.81;100297.19;7382163;19;19922;-62
2022/11/01 12:16:06;;;;;;;;;;;;;;;17.25;79.37;100283.47;7386310;19;19923;-60
2022/11/01 12:18:34;;;;;;;;;;;;;;;17.25;77.83;100294.94;7387786;19;19930;-61
2022/11/01 12:21:01;;;;;;;;;;;;;;;17.27;78.38;100286.75;7388259;19;19915;-60
2022/11/01 12:23:31;;;;;;;;;;;;;;;17.28;79.15;100299.81;7388301;19;19928;-61
2022/11/01 12:26:00;;;;;;;;;;;;;;;17.25;78.15;100296.78;7386206;19;19945;-62
2022/11/01 12:28:31;;;;;;;;;;;;;;;17.18;76.15;100307.41;7385417;19;20349;-60
2022/11/01 12:31:02;;;;;;;;;;;;;;;17.12;75.98;100292.28;7389192;19;20764;-61
2022/11/01 12:33:29;;;;;;;;;;;;;;;17.07;76.59;100300.91;7384769;19;19951;-61
2022/11/01 12:35:57;;;;;;;;;;;;;;;17.03;76.82;100294.38;7387377;19;19942;-61
2022/11/01 12:38:24;;;;;;;;;;;;;;;17.02;77.63;100297.22;7387828;19;19943;-61
2022/11/01 12:40:51;;;;;;;;;;;;;;;17.00;78.89;100297.44;7387873;19;20319;-61
2022/11/01 12:43:22;;;;;;;;;;;;;;;17.01;79.75;100298.28;7383769;19;20324;-67
2022/11/01 12:46:00;;;;;;;;;;;;;;;17.00;80.60;100307.25;7386875;19;19934;-61
2022/11/01 12:48:27;;;;;;;;;;;;;;;16.95;80.04;100296.44;7386677;19;20265;-62
2022/11/01 12:51:01;;;;;;;;;;;;;;;16.90;80.35;100307.69;7388281;19;20662;-62
2022/11/01 12:53:38;;;;;;;;;;;;;;;16.86;79.43;100329.56;7383398;19;19940;-61
2022/11/01 12:56:05;;;;;;;;;;;;;;;16.82;79.69;100317.69;7387510;19;20352;-62